Time;durP1;ratioP1;P1;durP2;ratioP2;P2;SDS_P1;SDS_P2;PMS_P1;PMS_P2;Temp;Humidity;BMP_temperature;BMP_pressure;BME280_temperature;BME280_humidity;BME280_pressure;Samples;Min_cycle;Max_cycle;Signal;HPM_P1;HPM_P2
2022/09/03 00:00:24;;;;;;;0.50;0.50;;;14.80;99.90;;;;;;5014466;28;20425;-70
2022/09/03 00:03:25;;;;;;;0.80;0.80;;;15.00;99.90;;;;;;5014584;28;20484;-70
2022/09/03 00:06:20;;;;;;;4.33;0.87;;;14.90;99.90;;;;;;5014309;28;20468;-70
2022/09/03 00:08:58;;;;;;;0.30;0.30;;;14.80;99.90;;;;;;5014334;28;20400;-70
2022/09/03 00:11:48;;;;;;;0.80;0.80;;;14.60;99.90;;;;;;5014095;28;20910;-70
2022/09/03 00:14:34;;;;;;;1.90;1.80;;;14.70;99.90;;;;;;4974484;28;20433;-71
2022/09/03 00:17:09;;;;;;;1.27;1.20;;;15.10;99.90;;;;;;5014274;28;20539;-71
2022/09/03 00:19:58;;;;;;;0.70;0.70;;;15.00;99.90;;;;;;5014073;28;20420;-72
2022/09/03 00:22:32;;;;;;;1.30;1.20;;;15.00;99.90;;;;;;5013644;28;20418;-70
2022/09/03 00:25:04;;;;;;;0.70;0.70;;;14.80;99.90;;;;;;5014192;28;20405;-70
2022/09/03 00:27:34;;;;;;;2.87;1.57;;;14.90;99.90;;;;;;5014007;28;20441;-72
2022/09/03 00:30:07;;;;;;;0.97;0.97;;;14.70;99.90;;;;;;5013958;28;20451;-71
2022/09/03 00:32:46;;;;;;;3.03;0.80;;;15.10;99.90;;;;;;5014153;28;20528;-72
2022/09/03 00:35:39;;;;;;;0.63;0.63;;;15.00;99.90;;;;;;5014186;28;20407;-70
2022/09/03 00:38:05;;;;;;;0.40;0.40;;;;;;;;;;5013970;28;20487;-71
2022/09/03 00:40:53;;;;;;;1.03;1.00;;;15.10;99.90;;;;;;5013709;28;20450;-71
2022/09/03 00:43:19;;;;;;;1.03;1.03;;;;;;;;;;5013846;28;20420;-72
2022/09/03 00:45:50;;;;;;;0.40;0.40;;;15.10;99.90;;;;;;5013778;28;20517;-72
2022/09/03 00:48:31;;;;;;;3.30;2.60;;;15.00;99.90;;;;;;5013811;28;20395;-70
2022/09/03 00:51:47;;;;;;;2.40;2.33;;;15.10;99.90;;;;;;5013585;28;20414;-72
2022/09/03 00:54:42;;;;;;;0.73;0.63;;;15.30;99.90;;;;;;4970589;28;20446;-71
2022/09/03 00:57:48;;;;;;;0.80;0.80;;;15.40;99.90;;;;;;5013857;28;20449;-70
2022/09/03 01:00:18;;;;;;;0.90;0.53;;;15.00;99.90;;;;;;4986409;28;20421;-70
2022/09/03 01:03:07;;;;;;;0.83;0.83;;;15.20;99.90;;;;;;5015592;28;20399;-70
2022/09/03 01:05:51;;;;;;;0.63;0.63;;;14.90;99.90;;;;;;5016609;28;20907;-71
2022/09/03 01:08:35;;;;;;;0.73;0.70;;;15.10;99.90;;;;;;5016420;28;20468;-71
2022/09/03 01:11:30;;;;;;;0.70;0.70;;;15.10;99.90;;;;;;5017669;28;20407;-69
2022/09/03 01:14:16;;;;;;;1.00;0.97;;;15.00;99.90;;;;;;4982038;28;20468;-70
2022/09/03 01:16:50;;;;;;;1.00;1.00;;;15.10;99.90;;;;;;5017605;28;20441;-71
2022/09/03 01:19:24;;;;;;;1.13;1.13;;;15.40;99.90;;;;;;5017703;28;20449;-71
2022/09/03 01:22:06;;;;;;;2.37;2.23;;;15.10;99.90;;;;;;5017445;28;20910;-71
2022/09/03 01:24:52;;;;;;;1.63;1.53;;;15.10;99.90;;;;;;5017611;28;20392;-71
2022/09/03 01:27:30;;;;;;;1.90;1.83;;;15.30;99.90;;;;;;5017310;28;20422;-69
2022/09/03 01:30:06;;;;;;;1.40;1.30;;;15.70;99.90;;;;;;5017439;28;20425;-72
2022/09/03 01:32:32;;;;;;;1.00;0.90;;;;;;;;;;5017239;28;20484;-72
2022/09/03 01:35:23;;;;;;;0.87;0.87;;;14.80;99.90;;;;;;5017175;28;20398;-72
2022/09/03 01:38:24;;;;;;;0.70;0.70;;;14.50;99.90;;;;;;5017218;28;20425;-72
2022/09/03 01:40:49;;;;;;;0.80;0.80;;;15.00;99.90;;;;;;5016949;28;20407;-71
2022/09/03 01:43:34;;;;;;;1.77;1.67;;;15.10;99.90;;;;;;5016992;28;20404;-72
2022/09/03 01:46:16;;;;;;;0.50;0.50;;;14.70;99.90;;;;;;5017144;28;20196;-70
2022/09/03 01:48:55;;;;;;;0.80;0.80;;;14.50;99.90;;;;;;5016946;28;20399;-69
2022/09/03 01:51:27;;;;;;;0.63;0.63;;;14.50;99.90;;;;;;5016685;28;20410;-71
2022/09/03 01:54:31;;;;;;;1.10;1.10;;;14.40;99.90;;;;;;5016927;28;20947;-72
2022/09/03 01:57:35;;;;;;;0.37;0.37;;;14.70;99.90;;;;;;5016684;28;20977;-69
2022/09/03 02:00:12;;;;;;;1.50;1.40;;;14.50;99.90;;;;;;5016478;28;20442;-69
2022/09/03 02:02:42;;;;;;;1.67;1.57;;;14.60;99.90;;;;;;5016887;28;20410;-72
2022/09/03 02:05:22;;;;;;;1.90;0.97;;;14.70;99.90;;;;;;5015508;28;20965;-71
2022/09/03 02:07:53;;;;;;;1.13;1.03;;;14.80;99.90;;;;;;5016573;28;20533;-72
2022/09/03 02:10:28;;;;;;;1.00;0.90;;;14.70;99.90;;;;;;5016521;28;20415;-71
2022/09/03 02:13:25;;;;;;;0.80;0.80;;;15.10;99.90;;;;;;5016133;28;20507;-72
2022/09/03 02:15:55;;;;;;;0.67;0.67;;;15.00;99.90;;;;;;4998923;28;20449;-72
2022/09/03 02:18:35;;;;;;;0.90;0.80;;;14.90;99.90;;;;;;5016311;28;20415;-71
2022/09/03 02:21:01;;;;;;;1.40;1.40;;;14.90;99.90;;;;;;5016291;28;20510;-71
2022/09/03 02:23:28;;;;;;;0.50;0.50;;;;;;;;;;5016323;28;20492;-71
2022/09/03 02:26:00;;;;;;;4.10;3.80;;;15.20;99.90;;;;;;5016344;28;20176;-72
2022/09/03 02:28:28;;;;;;;0.90;0.80;;;15.40;99.90;;;;;;5016200;28;20411;-71
2022/09/03 02:30:54;;;;;;;0.40;0.40;;;15.00;99.90;;;;;;5014849;28;20505;-71
2022/09/03 02:33:20;;;;;;;1.20;1.20;;;15.10;99.90;;;;;;5015872;28;20570;-72
2022/09/03 02:35:46;;;;;;;2.50;1.53;;;14.80;99.90;;;;;;5016179;28;20168;-72
2022/09/03 02:38:21;;;;;;;1.30;1.20;;;15.20;99.90;;;;;;5014719;28;20427;-72
2022/09/03 02:40:47;;;;;;;1.77;1.70;;;;;;;;;;5015800;28;20497;-70
2022/09/03 02:43:21;;;;;;;2.97;2.20;;;15.10;99.90;;;;;;5016041;28;20914;-70
2022/09/03 02:45:52;;;;;;;1.43;1.40;;;14.90;99.90;;;;;;5016439;28;20412;-72
2022/09/03 02:48:22;;;;;;;1.30;1.27;;;15.20;99.90;;;;;;5016051;28;20814;-72
2022/09/03 02:50:48;;;;;;;0.97;0.97;;;15.10;99.90;;;;;;5015959;28;20473;-72
2022/09/03 02:53:14;;;;;;;0.40;0.40;;;;;;;;;;5015877;28;20446;-71
2022/09/03 02:55:40;;;;;;;1.70;1.60;;;;;;;;;;5015701;28;20398;-71
2022/09/03 02:58:07;;;;;;;1.40;0.97;;;15.20;99.90;;;;;;5015557;28;20809;-72
2022/09/03 03:00:34;;;;;;;3.43;1.50;;;15.20;99.90;;;;;;5015574;28;20419;-72
2022/09/03 03:03:01;;;;;;;0.70;0.70;;;15.30;99.90;;;;;;5015902;28;20415;-71
2022/09/03 03:05:41;;;;;;;1.40;1.40;;;15.60;99.90;;;;;;5015803;28;20407;-70
2022/09/03 03:08:07;;;;;;;0.40;0.40;;;15.30;99.90;;;;;;5015717;28;20438;-69
2022/09/03 03:10:34;;;;;;;2.20;1.87;;;15.30;99.90;;;;;;5015273;28;20441;-72
2022/09/03 03:13:00;;;;;;;0.47;0.47;;;15.20;99.90;;;;;;5015496;28;20530;-72
2022/09/03 03:15:27;;;;;;;1.03;1.00;;;15.50;99.90;;;;;;5015428;28;20569;-72
2022/09/03 03:17:56;;;;;;;0.60;0.60;;;15.20;99.90;;;;;;5015396;28;20427;-70
2022/09/03 03:20:21;;;;;;;0.97;0.87;;;15.40;99.90;;;;;;5015142;28;20809;-70
2022/09/03 03:22:47;;;;;;;1.60;1.50;;;;;;;;;;5015355;28;20408;-70
2022/09/03 03:25:13;;;;;;;2.20;2.10;;;15.40;99.90;;;;;;5014834;28;20262;-71
2022/09/03 03:27:41;;;;;;;0.50;0.50;;;;;;;;;;5013714;28;20801;-70
2022/09/03 03:30:09;;;;;;;1.57;1.47;;;15.40;99.90;;;;;;5015039;28;20175;-70
2022/09/03 03:32:37;;;;;;;2.30;2.17;;;15.20;99.90;;;;;;5015009;28;20458;-70
2022/09/03 03:35:04;;;;;;;0.83;0.83;;;15.00;99.90;;;;;;5015041;28;20410;-71
2022/09/03 03:37:31;;;;;;;1.87;1.77;;;15.40;99.90;;;;;;5014777;28;20457;-72
2022/09/03 03:39:57;;;;;;;1.63;1.53;;;;;;;;;;5014641;28;20415;-70
2022/09/03 03:42:22;;;;;;;0.80;0.80;;;15.20;99.90;;;;;;5014721;28;20446;-71
2022/09/03 03:44:48;;;;;;;0.90;0.90;;;15.30;99.90;;;;;;5014815;28;20406;-70
2022/09/03 03:47:15;;;;;;;0.40;0.40;;;;;;;;;;5014660;28;20191;-71
2022/09/03 03:49:42;;;;;;;1.13;1.13;;;;;;;;;;5014655;28;20309;-72
2022/09/03 03:52:07;;;;;;;0.40;0.40;;;15.20;99.90;;;;;;5014665;28;20457;-72
2022/09/03 03:54:33;;;;;;;0.97;0.97;;;15.20;99.90;;;;;;5014565;28;20407;-70
2022/09/03 03:56:59;;;;;;;0.70;0.70;;;;;;;;;;5014518;28;20204;-70
2022/09/03 03:59:25;;;;;;;0.50;0.50;;;;;;;;;;5014902;28;20652;-72
2022/09/03 04:01:53;;;;;;;0.70;0.60;;;15.70;99.90;;;;;;5014385;28;20491;-70
2022/09/03 04:04:19;;;;;;;5.07;2.83;;;15.70;99.90;;;;;;5014568;28;20480;-70
2022/09/03 04:06:45;;;;;;;0.80;0.80;;;15.50;99.90;;;;;;5013212;28;20532;-70
2022/09/03 04:09:11;;;;;;;1.07;1.07;;;15.40;99.90;;;;;;5014093;28;20736;-72
2022/09/03 04:11:36;;;;;;;1.53;1.53;;;15.80;99.90;;;;;;5013992;28;20172;-71
2022/09/03 04:14:02;;;;;;;1.73;1.63;;;15.30;99.90;;;;;;5014194;28;20250;-71
2022/09/03 04:16:28;;;;;;;0.70;0.70;;;;;;;;;;5013895;28;20667;-72
2022/09/03 04:18:55;;;;;;;0.67;0.67;;;15.50;99.90;;;;;;5014009;28;20203;-70
2022/09/03 04:21:29;;;;;;;0.50;0.50;;;15.40;99.90;;;;;;5013756;28;20499;-71
2022/09/03 04:23:56;;;;;;;0.60;0.60;;;15.30;99.90;;;;;;5014353;28;20406;-70
2022/09/03 04:26:31;;;;;;;1.57;1.47;;;15.20;99.90;;;;;;5013784;28;20440;-69
2022/09/03 04:29:04;;;;;;;3.73;2.07;;;15.50;99.90;;;;;;5013995;28;20477;-72
2022/09/03 04:31:31;;;;;;;3.03;2.70;;;15.20;99.90;;;;;;5013911;28;20509;-71
2022/09/03 04:33:57;;;;;;;0.87;0.80;;;;;;;;;;5013856;28;20514;-72
2022/09/03 04:36:25;;;;;;;1.73;1.20;;;15.20;99.90;;;;;;5013414;28;20480;-71
2022/09/03 04:38:55;;;;;;;0.83;0.83;;;15.50;99.90;;;;;;5013568;28;20409;-70
2022/09/03 04:41:24;;;;;;;0.60;0.60;;;15.60;99.90;;;;;;5013704;28;20417;-70
2022/09/03 04:43:51;;;;;;;0.90;0.90;;;15.60;99.90;;;;;;5013911;28;20917;-70
2022/09/03 04:46:19;;;;;;;1.23;1.13;;;15.50;99.90;;;;;;5013844;28;20467;-72
2022/09/03 04:48:49;;;;;;;0.53;0.53;;;15.30;99.90;;;;;;5013789;28;20497;-71
2022/09/03 04:51:17;;;;;;;1.67;1.57;;;15.50;99.90;;;;;;5013620;28;20899;-71
2022/09/03 04:53:45;;;;;;;0.50;0.50;;;15.70;99.90;;;;;;5013707;28;20822;-70
2022/09/03 04:56:31;;;;;;;1.50;1.50;;;15.60;99.90;;;;;;5013858;28;20588;-72
2022/09/03 04:58:59;;;;;;;1.37;1.27;;;15.70;99.90;;;;;;5013645;28;20391;-72
2022/09/03 05:01:27;;;;;;;1.77;1.70;;;15.40;99.90;;;;;;5012237;28;20494;-72
2022/09/03 05:03:55;;;;;;;1.67;1.03;;;15.50;99.90;;;;;;5013693;28;20502;-72
2022/09/03 05:06:21;;;;;;;1.33;1.33;;;15.80;99.90;;;;;;5013678;28;20463;-71
2022/09/03 05:08:51;;;;;;;1.10;1.00;;;15.80;99.90;;;;;;5013678;28;20426;-71
2022/09/03 05:11:17;;;;;;;1.13;0.60;;;15.60;99.90;;;;;;5013349;28;20257;-71
2022/09/03 05:13:44;;;;;;;0.60;0.60;;;;;;;;;;5013439;28;20599;-72
2022/09/03 05:16:11;;;;;;;0.93;0.93;;;15.60;99.90;;;;;;5013435;28;20535;-69
2022/09/03 05:18:39;;;;;;;0.83;0.83;;;;;;;;;;5013668;28;20399;-72
2022/09/03 05:21:06;;;;;;;1.33;0.70;;;16.10;99.90;;;;;;5013454;28;20497;-71
2022/09/03 05:23:39;;;;;;;1.10;1.10;;;15.70;99.90;;;;;;5013605;28;20532;-72
2022/09/03 05:26:08;;;;;;;1.40;1.40;;;16.00;99.90;;;;;;5013612;28;20437;-72
2022/09/03 05:28:35;;;;;;;0.93;0.93;;;15.70;99.90;;;;;;5013614;28;20417;-71
2022/09/03 05:31:05;;;;;;;1.53;0.80;;;15.70;99.90;;;;;;5013407;28;20414;-70
2022/09/03 05:33:36;;;;;;;1.43;0.63;;;16.00;99.90;;;;;;5013582;28;20895;-72
2022/09/03 05:36:07;;;;;;;0.80;0.80;;;15.70;99.90;;;;;;5013436;28;20428;-72
2022/09/03 05:38:33;;;;;;;0.80;0.80;;;16.10;99.90;;;;;;5013350;28;20394;-71
2022/09/03 05:41:00;;;;;;;1.07;0.70;;;15.90;99.90;;;;;;5013378;28;20920;-69
2022/09/03 05:43:27;;;;;;;1.97;1.90;;;15.80;99.90;;;;;;5013324;28;20405;-72
2022/09/03 05:45:58;;;;;;;1.93;1.83;;;15.70;99.90;;;;;;5013216;28;20413;-71
2022/09/03 05:48:23;;;;;;;0.60;0.60;;;15.80;99.90;;;;;;5014435;28;20886;-70
2022/09/03 05:50:49;;;;;;;2.20;1.30;;;;;;;;;;5016783;28;20508;-71
2022/09/03 05:53:17;;;;;;;0.60;0.60;;;15.80;99.90;;;;;;5016741;28;20245;-71
2022/09/03 05:55:42;;;;;;;0.70;0.70;;;15.90;99.90;;;;;;5016807;28;20795;-72
2022/09/03 05:58:08;;;;;;;0.80;0.80;;;;;;;;;;5016941;28;20445;-72
2022/09/03 06:00:35;;;;;;;0.83;0.83;;;15.90;99.90;;;;;;5016535;28;20171;-71
2022/09/03 06:03:01;;;;;;;2.73;1.13;;;15.80;99.90;;;;;;5016846;28;20416;-71
2022/09/03 06:05:27;;;;;;;0.50;0.43;;;;;;;;;;5016863;28;20416;-70
2022/09/03 06:07:53;;;;;;;1.30;1.20;;;;;;;;;;5016514;28;20429;-72
2022/09/03 06:10:19;;;;;;;0.97;0.90;;;;;;;;;;5016638;28;20791;-71
2022/09/03 06:12:50;;;;;;;1.00;0.60;;;15.60;99.90;;;;;;5015163;28;20460;-71
2022/09/03 06:15:16;;;;;;;0.50;0.50;;;16.20;99.90;;;;;;5016363;28;20528;-70
2022/09/03 06:17:42;;;;;;;1.87;1.80;;;;;;;;;;5016358;28;20545;-72
2022/09/03 06:20:08;;;;;;;1.33;1.23;;;15.80;99.90;;;;;;5016285;28;20201;-72
2022/09/03 06:22:34;;;;;;;0.83;0.83;;;16.30;99.90;;;;;;5016761;28;20406;-70
2022/09/03 06:25:00;;;;;;;0.97;0.93;;;;;;;;;;5016237;28;20967;-72
2022/09/03 06:27:28;;;;;;;1.13;1.13;;;16.20;99.90;;;;;;5016141;28;20198;-70
2022/09/03 06:29:53;;;;;;;0.67;0.67;;;16.00;99.90;;;;;;5016105;28;20450;-70
2022/09/03 06:32:19;;;;;;;0.93;0.93;;;;;;;;;;5016699;28;20489;-72
2022/09/03 06:34:45;;;;;;;0.80;0.70;;;16.40;99.90;;;;;;5016220;28;20182;-72
2022/09/03 06:37:11;;;;;;;0.50;0.50;;;;;;;;;;5016020;28;20434;-71
2022/09/03 06:39:37;;;;;;;0.60;0.60;;;;;;;;;;5015945;28;20179;-72
2022/09/03 06:42:03;;;;;;;1.33;1.33;;;16.50;99.90;;;;;;5016030;28;20390;-70
2022/09/03 06:44:29;;;;;;;2.90;1.33;;;16.60;99.90;;;;;;5016059;28;20441;-71
2022/09/03 06:46:59;;;;;;;2.53;1.87;;;;;;;;;;5015850;28;20465;-72
2022/09/03 06:49:25;;;;;;;1.40;1.30;;;16.60;99.90;;;;;;5015788;28;20187;-72
2022/09/03 06:51:51;;;;;;;1.20;1.17;;;;;;;;;;5014227;28;20419;-72
2022/09/03 06:54:16;;;;;;;0.93;0.93;;;17.10;99.90;;;;;;5015893;28;20406;-71
2022/09/03 06:56:42;;;;;;;0.40;0.40;;;17.00;99.90;;;;;;5015957;28;20426;-72
2022/09/03 06:59:13;;;;;;;0.53;0.53;;;17.30;99.90;;;;;;5015621;28;20608;-72
2022/09/03 07:01:40;;;;;;;2.00;1.33;;;17.70;99.90;;;;;;5014888;28;20215;-70
2022/09/03 07:04:07;;;;;;;1.20;0.63;;;18.00;99.90;;;;;;5015486;28;20498;-71
2022/09/03 07:06:39;;;;;;;2.20;1.03;;;18.00;99.90;;;;;;5015548;28;20430;-70
2022/09/03 07:09:09;;;;;;;0.90;0.90;;;18.70;99.90;;;;;;5015669;28;20464;-70
2022/09/03 07:11:36;;;;;;;0.67;0.50;;;18.50;99.90;;;;;;5015343;28;20408;-71
2022/09/03 07:14:03;;;;;;;1.07;1.07;;;19.20;99.90;;;;;;5015392;28;20508;-70
2022/09/03 07:16:33;;;;;;;1.30;1.20;;;19.30;99.90;;;;;;5015470;28;20440;-71
2022/09/03 07:18:59;;;;;;;1.13;0.60;;;20.00;99.90;;;;;;5015211;28;20778;-72
2022/09/03 07:21:27;;;;;;;1.33;1.23;;;20.10;99.90;;;;;;5015112;28;20902;-72
2022/09/03 07:23:54;;;;;;;0.80;0.80;;;20.50;99.90;;;;;;5015368;28;20398;-73
2022/09/03 07:26:25;;;;;;;0.50;0.50;;;20.40;99.90;;;;;;5015210;28;20433;-72
2022/09/03 07:28:53;;;;;;;0.40;0.40;;;20.60;99.90;;;;;;5015042;28;20390;-73
2022/09/03 07:31:24;;;;;;;0.80;0.80;;;20.40;99.90;;;;;;5014888;28;20418;-72
2022/09/03 07:34:11;;;;;;;0.60;0.60;;;20.40;99.90;;;;;;5013687;28;20462;-72
2022/09/03 07:36:42;;;;;;;0.70;0.70;;;20.00;99.90;;;;;;5014848;28;20463;-73
2022/09/03 07:39:10;;;;;;;0.87;0.87;;;20.00;99.90;;;;;;5014929;28;20395;-71
2022/09/03 07:41:36;;;;;;;0.60;0.60;;;;;;;;;;5014690;28;20925;-72
2022/09/03 07:44:04;;;;;;;0.80;0.80;;;20.50;99.90;;;;;;5015000;28;20449;-71
2022/09/03 07:46:32;;;;;;;1.30;1.20;;;20.70;99.90;;;;;;5014967;28;20435;-72
2022/09/03 07:49:01;;;;;;;1.07;0.70;;;20.70;99.90;;;;;;5014745;28;20411;-71
2022/09/03 07:51:28;;;;;;;0.60;0.50;;;21.00;99.90;;;;;;5014726;28;20438;-70
2022/09/03 07:53:56;;;;;;;0.40;0.40;;;20.90;99.90;;;;;;5014714;28;20461;-71
2022/09/03 07:56:23;;;;;;;0.50;0.50;;;21.00;99.70;;;;;;5013145;28;20462;-73
2022/09/03 07:58:49;;;;;;;0.43;0.43;;;;;;;;;;5014351;28;20411;-72
2022/09/03 08:01:19;;;;;;;0.90;0.90;;;21.30;99.90;;;;;;5014419;28;20402;-72
2022/09/03 08:03:47;;;;;;;0.60;0.60;;;20.60;99.90;;;;;;5014501;28;20405;-73
2022/09/03 08:06:14;;;;;;;1.23;0.50;;;20.70;99.90;;;;;;5014485;28;20951;-72
2022/09/03 08:08:40;;;;;;;0.97;0.87;;;20.50;99.90;;;;;;5014368;28;20446;-71
2022/09/03 08:11:14;;;;;;;0.93;0.70;;;20.00;99.90;;;;;;5014199;28;20410;-71
2022/09/03 08:13:43;;;;;;;0.40;0.40;;;19.90;99.90;;;;;;5014640;28;20913;-71
2022/09/03 08:16:10;;;;;;;1.77;1.33;;;19.80;99.90;;;;;;5014238;28;20921;-71
2022/09/03 08:18:37;;;;;;;0.40;0.40;;;19.50;99.90;;;;;;5014198;28;20405;-72
2022/09/03 08:21:13;;;;;;;0.60;0.60;;;19.70;99.90;;;;;;5013992;28;20416;-72
2022/09/03 08:23:41;;;;;;;0.73;0.73;;;19.50;99.90;;;;;;5014416;28;20943;-71
2022/09/03 08:26:07;;;;;;;0.80;0.63;;;19.50;99.90;;;;;;5014099;28;20433;-70
2022/09/03 08:28:34;;;;;;;0.83;0.80;;;19.80;99.90;;;;;;5014033;28;20505;-73
2022/09/03 08:31:10;;;;;;;0.60;0.60;;;19.60;99.90;;;;;;5013844;28;20932;-70
2022/09/03 08:33:37;;;;;;;1.20;1.20;;;19.50;99.90;;;;;;5014076;28;20488;-71
2022/09/03 08:36:07;;;;;;;0.40;0.40;;;19.60;99.90;;;;;;5013821;28;20428;-70
2022/09/03 08:38:34;;;;;;;0.40;0.40;;;20.20;99.90;;;;;;5013898;28;20499;-72
2022/09/03 08:41:09;;;;;;;0.70;0.60;;;20.30;99.90;;;;;;5013801;28;20911;-70
2022/09/03 08:43:48;;;;;;;0.57;0.57;;;20.40;99.90;;;;;;5014119;28;20416;-70
2022/09/03 08:46:13;;;;;;;1.13;1.13;;;20.40;99.90;;;;;;5013999;28;20430;-72
2022/09/03 08:48:39;;;;;;;0.90;0.63;;;;;;;;;;5014123;28;20755;-72
2022/09/03 08:51:07;;;;;;;0.50;0.50;;;20.70;99.90;;;;;;5013822;28;20251;-72
2022/09/03 08:53:54;;;;;;;0.50;0.50;;;20.80;99.90;;;;;;5013639;28;20600;-72
2022/09/03 08:56:30;;;;;;;2.30;1.30;;;21.20;99.90;;;;;;5013685;28;20794;-72
2022/09/03 08:58:56;;;;;;;1.03;0.67;;;21.00;99.90;;;;;;5014164;28;20399;-71
2022/09/03 09:01:24;;;;;;;0.73;0.63;;;20.50;99.90;;;;;;5013872;28;20728;-71
2022/09/03 09:03:50;;;;;;;0.60;0.60;;;20.70;99.90;;;;;;5013728;28;20901;-71
2022/09/03 09:06:24;;;;;;;0.50;0.50;;;20.20;99.90;;;;;;5013712;28;20439;-71
2022/09/03 09:09:32;;;;;;;0.50;0.50;;;20.10;99.90;;;;;;5013620;28;20163;-72
2022/09/03 09:12:22;;;;;;;0.50;0.40;;;19.90;99.90;;;;;;5013730;28;20451;-70
2022/09/03 09:15:01;;;;;;;0.50;0.50;;;19.70;99.90;;;;;;5013677;28;20931;-70
2022/09/03 09:17:51;;;;;;;0.50;0.50;;;19.50;99.90;;;;;;5013555;28;20449;-71
2022/09/03 09:20:28;;;;;;;1.03;0.70;;;18.70;99.90;;;;;;5013358;28;20409;-70
2022/09/03 09:23:05;;;;;;;0.80;0.60;;;18.60;99.90;;;;;;5014181;28;20800;-72
2022/09/03 09:25:32;;;;;;;0.90;0.60;;;18.40;99.90;;;;;;5017594;28;20413;-72
2022/09/03 09:28:07;;;;;;;0.50;0.50;;;18.10;99.90;;;;;;5017286;28;20499;-71
2022/09/03 09:30:32;;;;;;;0.70;0.70;;;17.60;99.90;;;;;;5017565;28;20437;-72
2022/09/03 09:32:59;;;;;;;0.40;0.40;;;;;;;;;;5017326;28;20450;-73
2022/09/03 09:35:26;;;;;;;0.70;0.70;;;;;;;;;;5016164;28;20636;-72
2022/09/03 09:37:54;;;;;;;0.40;0.40;;;17.20;99.90;;;;;;5017136;28;20460;-71
2022/09/03 09:40:24;;;;;;;0.83;0.77;;;16.70;99.90;;;;;;5016963;28;20412;-71
2022/09/03 09:42:57;;;;;;;0.30;0.30;;;;;;;;;;5015815;28;20438;-72
2022/09/03 09:45:23;;;;;;;0.30;0.30;;;16.30;99.90;;;;;;5017189;28;20786;-70
2022/09/03 09:47:53;;;;;;;0.30;0.30;;;16.30;99.90;;;;;;5016939;28;20437;-72
2022/09/03 09:50:21;;;;;;;0.67;0.50;;;16.50;99.90;;;;;;5016988;28;20175;-71
2022/09/03 09:52:47;;;;;;;0.30;0.30;;;;;;;;;;5017512;28;20460;-72
2022/09/03 09:55:19;;;;;;;0.30;0.30;;;16.30;99.90;;;;;;5016849;28;20738;-72
2022/09/03 09:57:45;;;;;;;0.30;0.30;;;;;;;;;;5016809;28;20422;-70
2022/09/03 10:00:15;;;;;;;0.30;0.30;;;15.70;99.90;;;;;;5016636;28;20414;-72
2022/09/03 10:02:53;;;;;;;0.30;0.30;;;16.70;99.90;;;;;;5016873;28;20476;-71
2022/09/03 10:05:29;;;;;;;0.60;0.60;;;16.90;99.90;;;;;;5016891;28;20453;-71
2022/09/03 10:07:59;;;;;;;0.60;0.53;;;16.80;99.90;;;;;;5016603;28;20442;-70
2022/09/03 10:10:27;;;;;;;0.60;0.60;;;17.00;99.90;;;;;;5016564;28;20411;-72
2022/09/03 10:13:18;;;;;;;0.50;0.50;;;17.00;99.90;;;;;;5016562;28;20482;-72
2022/09/03 10:15:54;;;;;;;0.40;0.40;;;17.70;99.90;;;;;;5016482;28;20435;-72
2022/09/03 10:18:40;;;;;;;0.60;0.60;;;18.20;99.90;;;;;;5016470;28;20390;-73
2022/09/03 10:21:33;;;;;;;1.60;0.40;;;17.70;99.90;;;;;;5016504;28;20808;-72
2022/09/03 10:24:09;;;;;;;0.50;0.50;;;18.40;99.90;;;;;;5016444;28;20774;-72
2022/09/03 10:26:35;;;;;;;0.43;0.43;;;18.70;99.90;;;;;;5014977;28;20438;-72
2022/09/03 10:29:07;;;;;;;0.30;0.30;;;18.80;99.90;;;;;;5016202;28;20402;-71
2022/09/03 10:31:52;;;;;;;0.50;0.40;;;19.10;99.90;;;;;;5016198;28;20412;-70
2022/09/03 10:34:33;;;;;;;0.50;0.50;;;18.40;99.90;;;;;;5015331;28;20459;-73
2022/09/03 10:37:21;;;;;;;0.80;0.80;;;18.60;99.90;;;;;;5014715;28;20441;-71
2022/09/03 10:40:15;;;;;;;0.60;0.60;;;18.80;99.90;;;;;;5015983;28;20411;-71
2022/09/03 10:43:05;;;;;;;0.40;0.40;;;18.50;99.90;;;;;;5016199;28;20760;-72
2022/09/03 10:45:47;;;;;;;1.17;0.43;;;18.30;99.90;;;;;;5014718;28;20911;-72
2022/09/03 10:48:53;;;;;;;0.40;0.40;;;18.30;99.90;;;;;;5015922;28;20461;-71
2022/09/03 10:51:28;;;;;;;1.03;0.50;;;18.60;99.90;;;;;;5015818;28;20501;-72
2022/09/03 10:54:17;;;;;;;0.30;0.30;;;18.30;99.90;;;;;;5015923;28;20456;-71
2022/09/03 10:56:52;;;;;;;0.37;0.37;;;18.50;99.90;;;;;;5015818;28;20505;-71
2022/09/03 10:59:38;;;;;;;0.40;0.40;;;18.40;99.90;;;;;;5015677;28;20871;-72
2022/09/03 11:02:33;;;;;;;0.40;0.40;;;18.40;99.90;;;;;;5015643;28;20964;-71
2022/09/03 11:05:20;;;;;;;0.50;0.50;;;18.50;99.90;;;;;;5015732;28;20403;-70
2022/09/03 11:07:57;;;;;;;0.40;0.40;;;18.30;99.90;;;;;;5015673;28;20419;-70
2022/09/03 11:10:32;;;;;;;0.30;0.30;;;18.40;99.90;;;;;;5015576;28;20407;-70
2022/09/03 11:13:08;;;;;;;1.07;1.00;;;18.30;99.90;;;;;;5015442;28;20455;-71
2022/09/03 11:16:00;;;;;;;0.30;0.30;;;18.30;99.90;;;;;;5015360;28;20497;-72
2022/09/03 11:18:39;;;;;;;2.33;0.70;;;18.30;99.90;;;;;;5015565;28;20410;-72
2022/09/03 11:21:11;;;;;;;0.53;0.53;;;18.30;99.90;;;;;;5015227;28;20403;-72
2022/09/03 11:23:44;;;;;;;0.53;0.53;;;18.40;99.90;;;;;;5015496;28;20469;-72
2022/09/03 11:26:14;;;;;;;1.60;0.40;;;18.40;99.90;;;;;;5015310;28;20427;-70
2022/09/03 11:29:07;;;;;;;0.30;0.30;;;18.40;99.90;;;;;;5015423;28;20469;-71
2022/09/03 11:31:57;;;;;;;0.30;0.30;;;18.50;99.90;;;;;;5015041;28;20415;-71
2022/09/03 11:34:26;;;;;;;0.30;0.30;;;18.50;99.90;;;;;;5015184;28;20501;-70
2022/09/03 11:37:03;;;;;;;0.40;0.40;;;19.30;99.90;;;;;;5015002;28;20424;-72
2022/09/03 11:39:32;;;;;;;0.30;0.30;;;19.10;99.90;;;;;;5015213;28;20429;-71
2022/09/03 11:41:58;;;;;;;0.40;0.40;;;19.40;99.90;;;;;;5014978;28;20424;-70
2022/09/03 11:44:36;;;;;;;0.40;0.40;;;19.70;99.90;;;;;;5014960;28;20768;-72
2022/09/03 11:47:19;;;;;;;0.60;0.60;;;19.70;99.70;;;;;;5014686;28;20426;-71
2022/09/03 11:49:52;;;;;;;0.50;0.50;;;20.30;99.90;;;;;;5014819;28;20453;-72
2022/09/03 11:52:31;;;;;;;1.17;0.90;;;20.00;99.90;;;;;;5014986;28;20503;-71
2022/09/03 11:54:57;;;;;;;0.40;0.40;;;20.70;99.90;;;;;;5014717;28;20402;-72
2022/09/03 11:57:42;;;;;;;0.30;0.30;;;20.50;99.90;;;;;;5014468;28;20520;-72
2022/09/03 12:00:13;;;;;;;0.60;0.60;;;20.50;99.90;;;;;;5014338;28;20414;-72
2022/09/03 12:02:45;;;;;;;0.40;0.40;;;20.20;98.10;;;;;;5014620;28;20405;-72
2022/09/03 12:05:19;;;;;;;0.50;0.50;;;20.00;99.90;;;;;;5014876;28;20801;-72
2022/09/03 12:08:09;;;;;;;0.40;0.40;;;20.00;99.90;;;;;;5014426;28;20803;-72
2022/09/03 12:10:34;;;;;;;0.67;0.50;;;20.20;99.90;;;;;;5014248;28;20394;-71
2022/09/03 12:13:09;;;;;;;0.77;0.73;;;20.00;99.90;;;;;;5014505;28;20457;-71
2022/09/03 12:15:52;;;;;;;0.40;0.40;;;19.90;99.50;;;;;;5014425;28;20187;-72
2022/09/03 12:18:30;;;;;;;0.40;0.40;;;19.70;99.90;;;;;;5014360;28;20387;-70
2022/09/03 12:20:58;;;;;;;0.30;0.30;;;;;;;;;;5014101;28;20407;-72
2022/09/03 12:23:41;;;;;;;0.67;0.67;;;20.20;98.50;;;;;;5014273;28;20496;-72
2022/09/03 12:26:38;;;;;;;0.30;0.30;;;20.70;98.30;;;;;;5014340;28;20442;-73
2022/09/03 12:29:05;;;;;;;0.40;0.40;;;21.20;99.90;;;;;;5013387;28;20791;-72
2022/09/03 12:31:42;;;;;;;0.40;0.40;;;21.00;99.80;;;;;;5013917;28;20818;-72
2022/09/03 12:34:15;;;;;;;0.30;0.30;;;21.30;99.90;;;;;;5014213;28;20458;-72
2022/09/03 12:36:50;;;;;;;0.30;0.30;;;21.10;99.90;;;;;;5013870;28;20434;-72
2022/09/03 12:39:23;;;;;;;0.50;0.40;;;20.90;99.90;;;;;;5012672;28;20460;-71
2022/09/03 12:42:11;;;;;;;0.30;0.30;;;20.10;99.90;;;;;;5013699;28;20899;-70
2022/09/03 12:44:37;;;;;;;0.30;0.30;;;;;;;;;;5013902;28;20438;-70
2022/09/03 12:47:05;;;;;;;0.30;0.30;;;20.60;99.00;;;;;;5013761;28;20440;-72
2022/09/03 12:49:38;;;;;;;0.67;0.67;;;20.40;99.90;;;;;;5013825;28;20485;-70
2022/09/03 12:52:15;;;;;;;0.40;0.30;;;20.50;98.60;;;;;;5013712;28;20411;-70
2022/09/03 12:54:57;;;;;;;0.50;0.50;;;20.40;99.60;;;;;;5013846;28;20461;-72
2022/09/03 12:57:45;;;;;;;0.33;0.33;;;20.40;99.90;;;;;;5013241;28;20449;-71
2022/09/03 13:00:14;;;;;;;0.30;0.30;;;20.40;99.90;;;;;;5013618;28;20426;-71
2022/09/03 13:02:57;;;;;;;0.97;0.50;;;19.90;99.90;;;;;;5013675;28;20777;-72
2022/09/03 13:05:41;;;;;;;0.30;0.30;;;20.10;99.10;;;;;;5013784;28;20438;-72
2022/09/03 13:08:10;;;;;;;0.40;0.40;;;20.00;99.90;;;;;;5013751;28;20402;-70
2022/09/03 13:10:41;;;;;;;0.40;0.40;;;20.10;99.90;;;;;;5013525;28;20866;-71
2022/09/03 13:13:27;;;;;;;0.30;0.30;;;20.00;98.10;;;;;;5013768;28;20453;-72
2022/09/03 13:16:28;;;;;;;0.30;0.30;;;19.50;99.90;;;;;;5013666;28;20428;-71
2022/09/03 13:19:06;;;;;;;0.30;0.30;;;19.60;99.90;;;;;;5013525;28;20406;-72
2022/09/03 13:21:43;;;;;;;1.17;1.00;;;19.50;99.90;;;;;;5013511;28;20497;-72
2022/09/03 13:24:26;;;;;;;1.17;0.50;;;19.50;99.90;;;;;;5013602;28;20417;-71
2022/09/03 13:27:04;;;;;;;0.30;0.30;;;19.80;99.90;;;;;;5013506;28;20441;-72
2022/09/03 13:30:01;;;;;;;0.40;0.40;;;20.20;99.90;;;;;;5013700;28;20391;-72
2022/09/03 13:32:36;;;;;;;1.63;1.53;;;20.00;99.90;;;;;;5013460;28;20461;-71